createdAt,value
2017-09-04T00:00:23.045Z,3.60
2017-09-04T00:02:49.265Z,3.93
2017-09-04T00:05:15.940Z,3.70
2017-09-04T00:07:42.175Z,3.77
2017-09-04T00:10:08.398Z,4.00
2017-09-04T00:12:35.017Z,4.10
2017-09-04T00:15:01.353Z,4.53
2017-09-04T00:17:27.599Z,4.33
2017-09-04T00:19:54.199Z,4.60
2017-09-04T00:22:20.425Z,4.40
2017-09-04T00:24:46.709Z,4.10
2017-09-04T00:27:13.291Z,4.60
2017-09-04T00:29:39.543Z,4.10
2017-09-04T00:32:05.769Z,4.20
2017-09-04T00:34:32.379Z,4.20
2017-09-04T00:36:58.684Z,5.27
2017-09-04T00:39:24.954Z,4.27
2017-09-04T00:41:51.580Z,4.00
2017-09-04T00:44:17.847Z,4.40
2017-09-04T00:46:44.077Z,4.47
2017-09-04T00:49:10.796Z,4.10
2017-09-04T00:51:37.087Z,4.40
2017-09-04T00:54:03.380Z,4.27
2017-09-04T00:56:29.977Z,3.90
2017-09-04T00:58:56.248Z,4.17
2017-09-04T01:01:22.521Z,4.27
2017-09-04T01:03:49.139Z,4.83
2017-09-04T01:06:15.475Z,3.97
2017-09-04T01:08:41.729Z,3.60
2017-09-04T01:11:08.378Z,3.77
2017-09-04T01:13:34.655Z,4.60
2017-09-04T01:16:00.888Z,3.97
2017-09-04T01:18:27.508Z,4.37
2017-09-04T01:20:53.763Z,4.50
2017-09-04T01:23:20.040Z,4.30
2017-09-04T01:25:46.670Z,4.40
2017-09-04T01:28:12.898Z,4.40
2017-09-04T01:30:39.136Z,3.90
2017-09-04T01:33:05.768Z,4.50
2017-09-04T01:35:32.036Z,4.30
2017-09-04T01:37:58.265Z,4.13
2017-09-04T01:40:24.815Z,4.43
2017-09-04T01:42:51.083Z,4.30
2017-09-04T01:45:17.330Z,4.23
2017-09-04T01:47:43.949Z,4.37
2017-09-04T01:50:10.203Z,4.40
2017-09-04T01:52:36.503Z,4.73
2017-09-04T01:55:03.165Z,4.63
2017-09-04T01:57:29.350Z,4.63
2017-09-04T01:59:55.634Z,4.13
2017-09-04T02:02:22.243Z,4.60
2017-09-04T02:04:48.461Z,5.23
2017-09-04T02:07:14.674Z,4.00
2017-09-04T02:09:41.374Z,4.63
2017-09-04T02:12:07.645Z,4.30
2017-09-04T02:14:33.903Z,4.70
2017-09-04T02:17:00.586Z,4.07
2017-09-04T02:19:26.865Z,4.90
2017-09-04T02:21:53.112Z,5.50
2017-09-04T02:24:19.736Z,4.60
2017-09-04T02:26:45.937Z,4.50
2017-09-04T02:29:12.187Z,4.53
2017-09-04T02:31:38.715Z,4.47
2017-09-04T02:34:04.939Z,4.67
2017-09-04T02:36:31.206Z,4.70
2017-09-04T02:38:57.860Z,5.40
2017-09-04T02:41:24.169Z,4.63
2017-09-04T02:43:50.419Z,4.50
2017-09-04T02:46:17.063Z,4.33
2017-09-04T02:48:43.291Z,4.37
2017-09-04T02:51:09.557Z,4.60
2017-09-04T02:53:36.221Z,4.53
2017-09-04T02:56:02.486Z,5.40
2017-09-04T02:58:28.725Z,5.10
2017-09-04T03:00:55.351Z,5.40
2017-09-04T03:03:21.609Z,5.87
2017-09-04T03:05:47.877Z,5.67
2017-09-04T03:08:14.471Z,5.57
2017-09-04T03:10:40.734Z,5.20
2017-09-04T03:13:06.988Z,4.83
2017-09-04T03:15:33.648Z,5.57
2017-09-04T03:17:59.910Z,4.90
2017-09-04T03:20:26.173Z,4.97
2017-09-04T03:22:52.851Z,4.40
2017-09-04T03:25:19.151Z,4.10
2017-09-04T03:27:45.455Z,4.53
2017-09-04T03:30:12.093Z,3.97
2017-09-04T03:32:38.356Z,4.30
2017-09-04T03:35:04.662Z,4.20
2017-09-04T03:37:30.998Z,4.57
2017-09-04T03:39:57.256Z,4.10
2017-09-04T03:42:23.569Z,4.63
2017-09-04T03:44:49.900Z,5.03
2017-09-04T03:47:16.155Z,4.90
2017-09-04T03:49:42.545Z,4.50
2017-09-04T03:52:08.838Z,4.57
2017-09-04T03:54:35.500Z,4.97
2017-09-04T03:57:01.841Z,5.20
2017-09-04T03:59:28.150Z,4.93
2017-09-04T04:01:54.469Z,5.80
2017-09-04T04:04:20.795Z,5.80
2017-09-04T04:06:47.364Z,5.40
2017-09-04T04:09:13.623Z,4.97
2017-09-04T04:11:39.938Z,5.10
2017-09-04T04:14:06.254Z,4.57
2017-09-04T04:16:32.521Z,3.30
2017-09-04T04:18:58.767Z,3.80
2017-09-04T04:21:25.007Z,3.60
2017-09-04T04:23:51.296Z,3.10
2017-09-04T04:26:17.549Z,3.67
2017-09-04T04:28:43.854Z,3.47
2017-09-04T04:31:10.465Z,3.70
2017-09-04T04:33:36.712Z,3.30
2017-09-04T04:36:02.982Z,3.50
2017-09-04T04:38:29.272Z,3.17
2017-09-04T04:40:55.600Z,3.40
2017-09-04T04:43:21.866Z,3.30
2017-09-04T04:45:48.119Z,2.83
2017-09-04T04:48:14.397Z,4.00
2017-09-04T04:50:40.660Z,3.37
2017-09-04T04:53:06.934Z,3.07
2017-09-04T04:55:33.210Z,3.03
2017-09-04T04:57:59.466Z,3.27
2017-09-04T05:00:25.704Z,3.37
2017-09-04T05:02:51.977Z,3.13
2017-09-04T05:05:18.196Z,3.20
2017-09-04T05:07:44.819Z,4.57
2017-09-04T05:10:11.034Z,3.63
2017-09-04T05:12:37.285Z,4.13
2017-09-04T05:15:03.924Z,3.70
2017-09-04T05:17:30.224Z,3.63
2017-09-04T05:19:56.462Z,3.90
2017-09-04T05:22:22.785Z,3.90
2017-09-04T05:24:49.081Z,3.57
2017-09-04T05:27:15.387Z,3.60
2017-09-04T05:29:41.653Z,3.63
2017-09-04T05:32:07.949Z,5.07
2017-09-04T05:34:34.249Z,4.23
2017-09-04T05:37:00.514Z,4.70
2017-09-04T05:39:26.797Z,4.43
2017-09-04T05:41:53.052Z,4.33
2017-09-04T05:44:19.368Z,4.03
2017-09-04T05:46:45.753Z,3.93
2017-09-04T05:49:12.111Z,4.00
2017-09-04T05:51:38.708Z,4.07
2017-09-04T05:54:04.960Z,4.37
2017-09-04T05:56:31.209Z,4.73
2017-09-04T05:58:57.499Z,4.83
2017-09-04T06:01:23.736Z,4.37
2017-09-04T06:03:49.975Z,5.30
2017-09-04T06:06:16.905Z,5.50
2017-09-04T06:08:43.142Z,4.50
2017-09-04T06:11:09.447Z,4.50
2017-09-04T06:13:35.771Z,4.43
2017-09-04T06:16:02.038Z,4.50
2017-09-04T06:18:28.286Z,4.80
2017-09-04T06:20:54.623Z,4.53
2017-09-04T06:23:20.867Z,4.57
2017-09-04T06:25:47.096Z,4.60
2017-09-04T06:28:13.744Z,5.63
2017-09-04T06:30:40.047Z,4.90
2017-09-04T06:33:06.393Z,4.47
2017-09-04T06:35:32.965Z,4.80
2017-09-04T06:37:59.251Z,5.03
2017-09-04T06:40:25.477Z,4.73
2017-09-04T06:42:51.716Z,4.90
2017-09-04T06:45:17.963Z,5.40
2017-09-04T06:47:44.170Z,5.20
2017-09-04T06:50:10.811Z,5.10
2017-09-04T06:52:37.108Z,6.37
2017-09-04T06:55:03.357Z,5.97
2017-09-04T06:57:30.020Z,5.03
2017-09-04T06:59:56.246Z,5.70
2017-09-04T07:02:22.486Z,4.93
2017-09-04T07:04:48.790Z,5.10
2017-09-04T07:07:15.032Z,6.77
2017-09-04T07:09:41.736Z,6.00
2017-09-04T07:12:07.992Z,5.80
2017-09-04T07:14:34.207Z,6.30
2017-09-04T07:17:00.455Z,6.40
2017-09-04T07:19:27.598Z,6.03
2017-09-04T07:21:53.847Z,6.13
2017-09-04T07:24:20.216Z,5.80
2017-09-04T07:26:46.493Z,6.80
2017-09-04T07:29:12.745Z,6.10
2017-09-04T07:31:39.016Z,7.20
2017-09-04T07:34:05.594Z,6.50
2017-09-04T07:36:31.850Z,7.10
2017-09-04T07:38:58.102Z,7.10
2017-09-04T07:41:24.315Z,6.30
2017-09-04T07:43:50.657Z,6.27
2017-09-04T07:46:17.295Z,7.47
2017-09-04T07:48:43.634Z,5.90
2017-09-04T07:51:09.937Z,5.60
2017-09-04T07:53:36.242Z,6.50
2017-09-04T07:56:02.620Z,5.43
2017-09-04T07:58:29.290Z,5.90
2017-09-04T08:00:55.559Z,5.97
2017-09-04T08:03:21.858Z,5.73
2017-09-04T08:05:48.202Z,5.73
2017-09-04T08:08:14.516Z,6.67
2017-09-04T08:10:41.138Z,5.47
2017-09-04T08:13:07.455Z,4.97
2017-09-04T08:15:33.747Z,5.20
2017-09-04T08:18:00.065Z,5.70
2017-09-04T08:20:26.377Z,4.70
2017-09-04T08:22:52.702Z,5.23
2017-09-04T08:25:19.040Z,4.50
2017-09-04T08:27:45.330Z,5.40
2017-09-04T08:30:11.691Z,5.03
2017-09-04T08:32:38.972Z,4.90
2017-09-04T08:35:05.661Z,3.83
2017-09-04T08:37:32.021Z,3.97
2017-09-04T08:39:58.384Z,4.20
2017-09-04T08:42:24.727Z,4.67
2017-09-04T08:44:51.071Z,3.60
2017-09-04T08:47:17.442Z,4.80
2017-09-04T08:49:43.763Z,3.63
2017-09-04T08:52:10.138Z,3.83
2017-09-04T08:54:36.612Z,3.13
2017-09-04T08:57:02.970Z,3.73
2017-09-04T08:59:29.712Z,3.90
2017-09-04T09:01:56.102Z,3.27
2017-09-04T09:04:22.450Z,2.90
2017-09-04T09:06:48.814Z,3.17
2017-09-04T09:09:15.211Z,2.90
2017-09-04T09:11:41.573Z,2.87
2017-09-04T09:14:07.924Z,2.70
2017-09-04T09:16:34.378Z,2.77
2017-09-04T09:19:01.176Z,2.77
2017-09-04T09:21:27.538Z,2.37
2017-09-04T09:23:53.936Z,2.67
2017-09-04T09:26:20.788Z,2.20
2017-09-04T09:28:47.291Z,2.33
2017-09-04T09:31:13.694Z,2.33
2017-09-04T09:33:40.076Z,2.47
2017-09-04T09:36:06.454Z,2.33
2017-09-04T09:38:32.785Z,2.20
2017-09-04T09:40:59.114Z,2.83
2017-09-04T09:43:25.423Z,2.10
2017-09-04T09:45:51.761Z,2.20
2017-09-04T09:48:18.126Z,2.43
2017-09-04T09:50:44.493Z,2.53
2017-09-04T09:53:10.894Z,1.80
2017-09-04T09:55:37.319Z,2.17
2017-09-04T09:58:03.712Z,2.20
2017-09-04T10:00:30.038Z,2.33
2017-09-04T10:02:56.718Z,2.50
2017-09-04T10:05:23.068Z,2.17
2017-09-04T10:07:49.414Z,2.93
2017-09-04T10:10:16.133Z,2.30
2017-09-04T10:12:42.452Z,1.97
2017-09-04T10:15:08.764Z,2.10
2017-09-04T10:17:35.135Z,2.10
2017-09-04T10:20:01.443Z,2.43
2017-09-04T10:22:27.810Z,2.33
2017-09-04T10:24:54.172Z,2.47
2017-09-04T10:27:20.549Z,2.40
2017-09-04T10:29:46.884Z,2.57
2017-09-04T10:32:13.260Z,2.60
2017-09-04T10:34:39.634Z,2.30
2017-09-04T10:37:05.940Z,2.07
2017-09-04T10:39:32.315Z,2.30
2017-09-04T10:41:58.617Z,2.60
2017-09-04T10:44:24.912Z,2.80
2017-09-04T10:46:51.562Z,2.70
2017-09-04T10:49:17.894Z,3.03
2017-09-04T10:51:44.201Z,3.07
2017-09-04T10:54:10.617Z,2.80
2017-09-04T10:56:36.909Z,3.17
2017-09-04T10:59:03.252Z,2.60
2017-09-04T11:01:29.588Z,3.00
2017-09-04T11:03:55.966Z,3.00
2017-09-04T11:06:22.256Z,3.63
2017-09-04T11:08:49.052Z,2.90
2017-09-04T11:11:15.441Z,4.13
2017-09-04T11:13:41.835Z,3.07
2017-09-04T11:16:08.505Z,3.90
2017-09-04T11:18:34.771Z,3.47
2017-09-04T11:21:01.200Z,3.70
2017-09-04T11:23:28.111Z,4.73
2017-09-04T11:25:54.469Z,3.47
2017-09-04T11:28:20.958Z,4.03
2017-09-04T11:30:47.761Z,3.70
2017-09-04T11:33:14.139Z,4.00
2017-09-04T11:35:40.431Z,3.97
2017-09-04T11:38:06.756Z,3.33
2017-09-04T11:40:33.093Z,3.40
2017-09-04T11:42:59.466Z,4.43
2017-09-04T11:45:25.811Z,3.90
2017-09-04T11:47:52.095Z,4.47
2017-09-04T11:50:18.430Z,4.20
2017-09-04T11:52:44.815Z,3.70
2017-09-04T11:55:11.155Z,3.53
2017-09-04T11:57:37.435Z,2.83
2017-09-04T12:00:03.751Z,3.33
2017-09-04T12:02:30.069Z,3.50
2017-09-04T12:04:56.406Z,3.63
2017-09-04T12:07:23.039Z,3.60
2017-09-04T12:09:49.412Z,3.70
2017-09-04T12:12:15.730Z,3.20
2017-09-04T12:14:42.032Z,3.37
2017-09-04T12:17:08.340Z,2.80
2017-09-04T12:19:34.667Z,3.17
2017-09-04T12:22:01.350Z,3.50
2017-09-04T12:24:27.690Z,2.70
2017-09-04T12:26:53.957Z,2.77
2017-09-04T12:29:20.300Z,3.33
2017-09-04T12:31:46.877Z,3.30
2017-09-04T12:34:13.201Z,2.90
2017-09-04T12:36:40.242Z,3.37
2017-09-04T12:39:06.585Z,3.90
2017-09-04T12:41:32.810Z,3.30
2017-09-04T12:43:59.133Z,2.70
2017-09-04T12:46:25.476Z,2.80
2017-09-04T12:48:51.836Z,3.77
2017-09-04T12:51:18.455Z,3.40
2017-09-04T12:53:44.767Z,2.90
2017-09-04T12:56:11.039Z,3.20
2017-09-04T12:58:37.397Z,3.20
2017-09-04T13:01:03.680Z,3.50
2017-09-04T13:03:29.935Z,4.27
2017-09-04T13:05:56.233Z,3.33
2017-09-04T13:08:22.535Z,3.47
2017-09-04T13:13:53.084Z,2.70
2017-09-04T13:16:22.321Z,3.13
2017-09-04T13:18:54.758Z,3.30
2017-09-04T13:21:40.995Z,3.47
2017-09-04T13:24:24.158Z,3.10
2017-09-04T13:26:56.852Z,3.27
2017-09-04T13:29:29.070Z,2.87
2017-09-04T13:31:56.368Z,2.80
2017-09-04T13:34:28.882Z,2.80
2017-09-04T13:37:01.651Z,2.73
2017-09-04T13:39:34.025Z,4.13
2017-09-04T13:42:15.234Z,3.33
2017-09-04T13:44:47.534Z,3.27
2017-09-04T13:47:14.832Z,3.13
2017-09-04T13:49:43.456Z,2.70
2017-09-04T13:52:15.948Z,2.93
2017-09-04T13:57:52.567Z,2.60
2017-09-04T14:00:34.102Z,2.90
2017-09-04T14:03:06.432Z,3.00
2017-09-04T14:05:51.637Z,2.70
2017-09-04T14:08:38.663Z,2.60
2017-09-04T14:11:10.966Z,3.17
2017-09-04T14:13:47.171Z,2.23
2017-09-04T14:16:19.552Z,3.53
2017-09-04T14:18:45.872Z,3.03
2017-09-04T14:21:12.187Z,2.80
2017-09-04T14:23:38.901Z,3.23
2017-09-04T14:26:05.313Z,3.07
2017-09-04T14:28:31.651Z,2.67
2017-09-04T14:30:57.918Z,2.80
2017-09-04T14:33:24.239Z,2.93
2017-09-04T14:35:50.574Z,2.37
2017-09-04T14:38:16.982Z,3.20
2017-09-04T14:40:49.349Z,2.97
2017-09-04T14:43:18.512Z,3.17
2017-09-04T14:45:47.718Z,3.20
2017-09-04T14:48:14.108Z,4.30
2017-09-04T14:50:40.411Z,3.70
2017-09-04T14:53:06.727Z,3.90
2017-09-04T14:55:33.027Z,4.17
2017-09-04T14:57:59.313Z,3.10
2017-09-04T15:00:25.668Z,3.17
2017-09-04T15:02:52.040Z,2.20
2017-09-04T15:05:18.782Z,3.10
2017-09-04T15:07:45.188Z,3.40
2017-09-04T15:10:11.547Z,3.50
2017-09-04T15:12:37.859Z,2.87
2017-09-04T15:15:04.235Z,2.97
2017-09-04T15:17:30.595Z,2.90
2017-09-04T15:19:57.315Z,3.17
2017-09-04T15:22:23.653Z,2.60
2017-09-04T15:24:49.968Z,2.83
2017-09-04T15:27:16.320Z,2.87
2017-09-04T15:29:42.627Z,3.20
2017-09-04T15:32:09.080Z,3.20
2017-09-04T15:34:35.778Z,2.73
2017-09-04T15:37:02.107Z,2.30
2017-09-04T15:39:28.565Z,2.40
2017-09-04T15:41:54.899Z,3.20
2017-09-04T15:44:21.238Z,2.47
2017-09-04T15:46:47.621Z,2.40
2017-09-04T15:49:13.950Z,2.80
2017-09-04T15:51:40.286Z,2.70
2017-09-04T15:54:06.729Z,2.60
2017-09-04T15:56:33.125Z,2.60
2017-09-04T15:58:59.457Z,2.60
2017-09-04T16:01:25.785Z,2.67
2017-09-04T16:03:52.106Z,2.70
2017-09-04T16:06:18.436Z,3.17
2017-09-04T16:08:44.835Z,2.50
2017-09-04T16:11:11.470Z,2.80
2017-09-04T16:13:37.763Z,3.07
2017-09-04T16:16:20.245Z,2.50
2017-09-04T16:18:49.438Z,2.30
2017-09-04T16:21:17.737Z,2.20
2017-09-04T16:23:45.032Z,2.50
2017-09-04T16:29:30.523Z,2.83
2017-09-04T16:31:56.809Z,2.90
2017-09-04T16:34:26.937Z,2.33
2017-09-04T16:37:03.587Z,2.80
2017-09-04T16:39:30.862Z,2.67
2017-09-04T16:42:00.160Z,2.70
2017-09-04T16:44:32.423Z,2.60
2017-09-04T16:46:58.758Z,2.37
2017-09-04T16:49:26.899Z,1.97
2017-09-04T16:51:55.060Z,2.10
2017-09-04T16:54:32.393Z,2.30
2017-09-04T16:56:59.616Z,2.13
2017-09-04T16:59:26.042Z,2.37
2017-09-04T17:01:52.394Z,2.30
2017-09-04T17:04:19.139Z,2.93
2017-09-04T17:06:45.518Z,2.33
2017-09-04T17:09:12.783Z,2.67
2017-09-04T17:11:43.319Z,2.73
2017-09-04T17:14:09.661Z,2.47
2017-09-04T17:16:35.986Z,2.47
2017-09-04T17:19:03.384Z,2.60
2017-09-04T17:21:31.523Z,2.83
2017-09-04T17:23:58.251Z,2.50
2017-09-04T17:26:24.629Z,2.30
2017-09-04T17:28:50.951Z,2.80
2017-09-04T17:31:17.638Z,2.60
2017-09-04T17:33:45.253Z,2.40
2017-09-04T17:36:11.620Z,2.33
2017-09-04T17:38:38.409Z,2.80
2017-09-04T17:41:04.815Z,3.30
2017-09-04T17:43:31.100Z,2.40
2017-09-04T17:45:57.910Z,2.50
2017-09-04T17:48:24.182Z,3.87
2017-09-04T17:50:50.504Z,3.33
2017-09-04T17:53:17.246Z,2.67
2017-09-04T17:55:43.564Z,3.10
2017-09-04T17:58:09.950Z,3.43
2017-09-04T18:00:36.639Z,3.83
2017-09-04T18:03:02.930Z,3.20
2017-09-04T18:05:29.279Z,3.30
2017-09-04T18:07:55.607Z,3.00
2017-09-04T18:10:21.849Z,3.17
2017-09-04T18:12:48.171Z,3.67
2017-09-04T18:15:14.490Z,3.47
2017-09-04T18:17:40.836Z,2.90
2017-09-04T18:20:07.249Z,3.30
2017-09-04T18:22:33.546Z,3.93
2017-09-04T18:24:59.878Z,3.60
2017-09-04T18:27:26.254Z,3.77
2017-09-04T18:29:52.946Z,4.00
2017-09-04T18:32:19.288Z,4.33
2017-09-04T18:34:45.606Z,4.40
2017-09-04T18:37:12.303Z,4.20
2017-09-04T18:39:38.612Z,4.17
2017-09-04T18:42:04.868Z,4.57
2017-09-04T18:44:31.238Z,4.63
2017-09-04T18:46:57.634Z,5.07
2017-09-04T18:49:24.337Z,4.60
2017-09-04T18:51:50.690Z,5.47
2017-09-04T18:54:17.086Z,6.27
2017-09-04T18:56:43.453Z,5.80
2017-09-04T18:59:09.761Z,6.17
2017-09-04T19:01:36.103Z,6.03
2017-09-04T19:04:02.441Z,5.50
2017-09-04T19:06:28.803Z,6.13
2017-09-04T19:08:55.140Z,5.47
2017-09-04T19:11:21.450Z,6.10
2017-09-04T19:13:48.185Z,5.37
2017-09-04T19:16:14.546Z,5.40
2017-09-04T19:18:40.898Z,4.90
2017-09-04T19:21:07.275Z,5.30
2017-09-04T19:23:33.530Z,5.37
2017-09-04T19:25:59.925Z,5.77
2017-09-04T19:28:26.292Z,5.30
2017-09-04T19:30:52.643Z,5.17
2017-09-04T19:33:19.177Z,5.30
2017-09-04T19:35:45.566Z,5.37
2017-09-04T19:38:12.283Z,4.00
2017-09-04T19:40:38.618Z,4.93
2017-09-04T19:43:04.943Z,6.00
2017-09-04T19:45:31.481Z,5.93
2017-09-04T19:47:57.771Z,7.27
2017-09-04T19:50:24.451Z,7.70
2017-09-04T19:52:50.777Z,7.37
2017-09-04T19:55:17.154Z,6.37
2017-09-04T19:57:43.529Z,7.03
2017-09-04T20:00:10.043Z,7.20
2017-09-04T20:02:36.410Z,6.97
2017-09-04T20:05:03.035Z,6.50
2017-09-04T20:07:29.340Z,7.30
2017-09-04T20:09:55.758Z,7.07
2017-09-04T20:12:22.139Z,6.90
2017-09-04T20:14:48.653Z,6.00
2017-09-04T20:17:15.057Z,6.70
2017-09-04T20:19:41.385Z,6.87
2017-09-04T20:22:07.799Z,6.97
2017-09-04T20:24:34.256Z,7.17
2017-09-04T20:27:00.560Z,7.17
2017-09-04T20:29:26.977Z,6.60
2017-09-04T20:31:53.254Z,6.47
2017-09-04T20:34:19.661Z,7.03
2017-09-04T20:36:46.366Z,7.20
2017-09-04T20:39:12.723Z,6.80
2017-09-04T20:41:39.058Z,6.30
2017-09-04T20:44:05.812Z,7.10
2017-09-04T20:46:32.122Z,6.83
2017-09-04T20:48:58.441Z,7.00
2017-09-04T20:51:24.804Z,7.57
2017-09-04T20:53:51.129Z,5.83
2017-09-04T20:56:17.485Z,7.80
2017-09-04T20:58:43.799Z,7.03
2017-09-04T21:01:10.077Z,7.63
2017-09-04T21:03:36.449Z,6.47
2017-09-04T21:06:03.110Z,7.03
2017-09-04T21:08:29.515Z,7.30
2017-09-04T21:10:55.863Z,6.60
2017-09-04T21:13:22.242Z,6.97
2017-09-04T21:15:48.593Z,6.23
2017-09-04T21:18:14.902Z,6.47
2017-09-04T21:20:41.250Z,6.70
2017-09-04T21:23:07.540Z,7.03
2017-09-04T21:25:33.875Z,6.90
2017-09-04T21:28:00.583Z,6.80
2017-09-04T21:30:26.949Z,6.07
2017-09-04T21:32:53.313Z,6.30
2017-09-04T21:35:20.128Z,6.60
2017-09-04T21:37:46.486Z,5.67
2017-09-04T21:40:12.928Z,7.07
2017-09-04T21:42:39.570Z,6.97
2017-09-04T21:45:05.889Z,6.90
2017-09-04T21:47:32.133Z,6.93
2017-09-04T21:49:58.798Z,7.20
2017-09-04T21:52:25.074Z,6.07
2017-09-04T21:54:51.420Z,6.83
2017-09-04T21:57:18.050Z,6.27
2017-09-04T21:59:44.342Z,7.20
2017-09-04T22:02:10.664Z,6.27
2017-09-04T22:04:36.987Z,7.43
2017-09-04T22:07:03.309Z,7.50
2017-09-04T22:09:29.659Z,7.47
2017-09-04T22:11:55.944Z,6.80
2017-09-04T22:14:22.224Z,6.60
2017-09-04T22:16:48.557Z,7.93
2017-09-04T22:19:14.962Z,7.07
2017-09-04T22:21:41.317Z,6.97
2017-09-04T22:24:07.639Z,7.47
2017-09-04T22:26:33.962Z,7.43
2017-09-04T22:29:00.289Z,7.00
2017-09-04T22:31:26.631Z,7.07
2017-09-04T22:33:53.318Z,6.57
2017-09-04T22:36:19.650Z,7.00
2017-09-04T22:38:46.029Z,7.60
2017-09-04T22:41:12.734Z,7.33
2017-09-04T22:43:39.033Z,6.70
2017-09-04T22:46:05.416Z,6.50
2017-09-04T22:48:32.152Z,7.30
2017-09-04T22:50:58.525Z,6.53
2017-09-04T22:53:24.884Z,7.37
2017-09-04T22:55:51.576Z,8.00
2017-09-04T22:58:18.848Z,7.37
2017-09-04T23:00:45.380Z,7.30
2017-09-04T23:03:12.002Z,7.70
2017-09-04T23:05:38.298Z,7.70
2017-09-04T23:08:04.639Z,6.80
2017-09-04T23:10:31.387Z,7.00
2017-09-04T23:12:57.718Z,6.97
2017-09-04T23:15:23.991Z,7.47
2017-09-04T23:17:50.680Z,8.33
2017-09-04T23:20:16.965Z,6.87
2017-09-04T23:22:43.317Z,7.57
2017-09-04T23:25:10.084Z,6.60
2017-09-04T23:27:36.357Z,6.80
2017-09-04T23:30:02.724Z,7.67
2017-09-04T23:32:29.331Z,7.17
2017-09-04T23:34:55.734Z,7.50
2017-09-04T23:37:22.055Z,7.63
2017-09-04T23:39:48.788Z,7.80
2017-09-04T23:42:15.178Z,7.33
2017-09-04T23:44:41.505Z,7.30
2017-09-04T23:50:01.216Z,7.80
2017-09-04T23:52:27.554Z,6.90
2017-09-04T23:54:53.851Z,7.67
2017-09-04T23:57:20.452Z,7.83
2017-09-04T23:59:46.717Z,7.77
